Time;durP1;ratioP1;P1;durP2;ratioP2;P2;SDS_P1;SDS_P2;PMS_P1;PMS_P2;Temp;Humidity;BMP_temperature;BMP_pressure;BME280_temperature;BME280_humidity;BME280_pressure;Samples;Min_cycle;Max_cycle;Signal;HPM_P1;HPM_P2
2022/11/03 04:04:58;;;;;;;0.10;0.10;;;;;;;;;;6366056;22;20030;-90
2022/11/03 04:07:50;;;;;;;0.10;0.10;;;;;;;;;;6255481;22;20019;-91
2022/11/03 04:10:28;;;;;;;0.20;0.20;;;;;;;;;;6251690;22;20024;-91
2022/11/03 07:38:11;;;;;;;0.13;0.13;;;;;;;;;;6387350;22;20486;-88
2022/11/03 07:40:37;;;;;;;0.25;0.25;;;;;;;;;;6334033;22;20452;-89
2022/11/03 07:49:19;;;;;;;0.10;0.10;;;;;;;;;;6351424;22;20027;-89
2022/11/03 07:51:45;;;;;;;0.30;0.30;;;;;;;;;;6328962;22;20018;-89
2022/11/03 07:54:14;;;;;;;0.20;0.20;;;;;;;;;;6329041;22;20086;-88
2022/11/03 07:56:51;;;;;;;0.20;0.20;;;;;;;;;;6330608;22;20649;-89
2022/11/03 07:59:28;;;;;;;0.20;0.20;;;;;;;;;;6330482;22;20072;-90
2022/11/03 08:04:31;;;;;;;0.10;0.10;;;;;;;;;;6322306;22;20028;-88
2022/11/03 08:06:57;;;;;;;0.20;0.20;;;;;;;;;;6275793;22;20019;-89
2022/11/03 08:28:04;;;;;;;0.30;0.30;;;;;;;;;;6329218;22;20020;-91
2022/11/03 08:33:45;;;;;;;0.20;0.20;;;;;;;;;;6329021;22;20030;-91
2022/11/03 08:36:12;;;;;;;0.30;0.30;;;;;;;;;;6279559;22;20018;-91
2022/11/03 08:41:44;;;;;;;0.10;0.10;;;;;;;;;;6305316;22;20054;-92
2022/11/03 08:44:20;;;;;;;0.17;0.17;;;;;;;;;;6278648;22;20079;-91
2022/11/03 08:46:47;;;;;;;0.17;0.17;;;;;;;;;;6279488;22;20015;-91
2022/11/03 08:49:29;;;;;;;0.10;0.10;;;;;;;;;;6304347;22;20003;-90
2022/11/03 08:52:03;;;;;;;0.10;0.10;;;;;;;;;;6304197;22;20023;-91
2022/11/03 09:04:53;;;;;;;0.17;0.17;;;;;;;;;;6357528;22;20003;-91
2022/11/03 09:07:19;;;;;;;0.30;0.30;;;;;;;;;;6310702;22;20026;-91
2022/11/03 09:09:51;;;;;;;0.20;0.20;;;;;;;;;;6310712;22;20045;-91
2022/11/03 09:15:24;;;;;;;0.20;0.20;;;;;;;;;;6336453;22;20023;-92
2022/11/03 09:30:49;;;;;;;0.10;0.10;;;;;;;;;;6311883;22;20070;-91
2022/11/03 09:33:16;;;;;;;0.20;0.20;;;;;;;;;;6275079;22;20050;-90
2022/11/03 09:35:43;;;;;;;0.13;0.13;;;;;;;;;;6304840;22;20098;-91
2022/11/03 09:46:27;;;;;;;0.20;0.20;;;;;;;;;;6360789;22;20026;-91
2022/11/03 09:49:04;;;;;;;0.20;0.20;;;;;;;;;;6359077;22;19999;-92
2022/11/03 09:54:39;;;;;;;0.20;0.20;;;;;;;;;;6333860;22;20023;-90
2022/11/03 10:00:28;;;;;;;0.20;0.20;;;;;;;;;;6344287;22;20054;-90
2022/11/03 10:02:55;;;;;;;0.20;0.20;;;;;;;;;;6335357;22;20006;-91
2022/11/03 10:05:41;;;;;;;0.20;0.20;;;;;;;;;;6334937;22;20002;-92
2022/11/03 10:11:38;;;;;;;0.40;0.40;;;;;;;;;;6360402;22;20034;-91
2022/11/03 10:14:11;;;;;;;0.77;0.77;;;;;;;;;;6363586;22;20029;-92
2022/11/03 10:16:37;;;;;;;0.10;0.10;;;;;;;;;;6335190;22;20047;-91
2022/11/03 10:19:13;;;;;;;0.20;0.20;;;;;;;;;;6331338;22;20072;-91
2022/11/03 10:22:08;;;;;;;0.10;0.10;;;;;;;;;;6340285;22;20019;-91
2022/11/03 10:24:37;;;;;;;0.10;0.10;;;;;;;;;;6333471;22;20020;-91
2022/11/03 10:27:04;;;;;;;0.10;0.10;;;;;;;;;;6332200;22;20023;-91
2022/11/03 10:29:33;;;;;;;0.10;0.10;;;;;;;;;;6333233;22;20067;-91
2022/11/03 10:35:40;;;;;;;0.10;0.10;;;;;;;;;;6330241;22;20049;-90
2022/11/03 10:38:24;;;;;;;0.10;0.10;;;;;;;;;;6281229;22;20014;-91
2022/11/03 10:41:09;;;;;;;0.10;0.10;;;;;;;;;;6332880;22;20022;-90
2022/11/03 10:44:16;;;;;;;0.20;0.20;;;;;;;;;;6356408;22;20041;-92
2022/11/03 10:46:57;;;;;;;0.13;0.13;;;;;;;;;;6333956;22;20023;-91
2022/11/03 10:49:35;;;;;;;0.10;0.10;;;;;;;;;;6357399;22;20374;-91
2022/11/03 10:52:21;;;;;;;0.10;0.10;;;;;;;;;;6333676;22;20055;-91
2022/11/03 10:58:12;;;;;;;0.10;0.10;;;;;;;;;;6328729;22;20029;-91
2022/11/03 11:00:48;;;;;;;0.20;0.20;;;;;;;;;;6333541;22;20014;-91
2022/11/03 11:03:15;;;;;;;0.10;0.10;;;;;;;;;;6333268;22;20066;-92
2022/11/03 11:05:45;;;;;;;0.17;0.17;;;;;;;;;;6359676;22;20010;-91
2022/11/03 11:08:13;;;;;;;0.20;0.20;;;;;;;;;;6332292;22;20062;-91
2022/11/03 11:10:50;;;;;;;0.10;0.10;;;;;;;;;;6340137;22;20002;-90
2022/11/03 11:21:44;;;;;;;0.30;0.30;;;;;;;;;;6349336;22;20015;-91
2022/11/03 11:24:13;;;;;;;0.20;0.20;;;;;;;;;;6273098;22;20088;-90
2022/11/03 11:26:41;;;;;;;0.20;0.20;;;;;;;;;;6277235;22;20081;-92
2022/11/03 11:29:07;;;;;;;0.20;0.20;;;;;;;;;;6299094;22;20467;-91
2022/11/03 12:03:25;;;;;;;0.10;0.10;;;;;;;;;;6331784;22;20007;-91
2022/11/03 12:06:00;;;;;;;0.10;0.10;;;;;;;;;;6309650;22;20055;-91
2022/11/03 12:08:28;;;;;;;0.10;0.10;;;;;;;;;;6334277;22;20015;-91
2022/11/03 12:11:35;;;;;;;0.10;0.10;;;;;;;;;;6315295;22;20019;-90
2022/11/03 12:14:02;;;;;;;0.15;0.15;;;;;;;;;;6312177;22;20046;-92
2022/11/03 12:16:31;;;;;;;0.10;0.10;;;;;;;;;;6311688;22;20066;-92
2022/11/03 12:19:19;;;;;;;0.10;0.10;;;;;;;;;;6336834;22;20025;-91
2022/11/03 12:21:46;;;;;;;0.10;0.10;;;;;;;;;;6309192;22;20015;-92
2022/11/03 12:24:31;;;;;;;0.30;0.30;;;;;;;;;;6309473;22;20022;-92
2022/11/03 12:27:03;;;;;;;0.10;0.10;;;;;;;;;;6309757;22;20030;-91
2022/11/03 12:29:35;;;;;;;0.30;0.30;;;;;;;;;;6336836;22;20010;-92
2022/11/03 12:32:11;;;;;;;0.25;0.25;;;;;;;;;;6337949;22;20006;-92
2022/11/03 12:34:38;;;;;;;0.10;0.10;;;;;;;;;;6287982;22;20460;-91
2022/11/03 12:37:24;;;;;;;0.10;0.10;;;;;;;;;;6337072;22;20026;-91
2022/11/03 12:39:51;;;;;;;0.10;0.10;;;;;;;;;;6313429;22;20014;-93
2022/11/03 12:42:25;;;;;;;0.10;0.10;;;;;;;;;;6289544;22;20043;-91
2022/11/03 12:50:15;;;;;;;0.10;0.10;;;;;;;;;;6318032;22;20052;-91
2022/11/03 12:52:41;;;;;;;0.10;0.10;;;;;;;;;;6336394;22;20019;-91
2022/11/03 12:55:11;;;;;;;0.10;0.10;;;;;;;;;;6333843;22;20019;-92
2022/11/03 12:57:56;;;;;;;0.10;0.10;;;;;;;;;;6336760;22;20058;-91
2022/11/03 13:00:24;;;;;;;0.20;0.20;;;;;;;;;;6308564;22;20015;-90
2022/11/03 13:03:25;;;;;;;0.10;0.10;;;;;;;;;;6335181;22;20007;-91
2022/11/03 13:05:51;;;;;;;0.10;0.10;;;;;;;;;;6333792;22;20011;-92
2022/11/03 13:08:56;;;;;;;0.10;0.10;;;;;;;;;;6336289;22;20033;-92
2022/11/03 13:19:26;;;;;;;0.10;0.10;;;;;;;;;;6360159;22;20019;-93
2022/11/03 13:21:52;;;;;;;0.10;0.10;;;;;;;;;;6308042;22;20014;-92
2022/11/03 13:24:27;;;;;;;0.17;0.17;;;;;;;;;;6308213;22;20026;-92
2022/11/03 13:26:55;;;;;;;0.20;0.20;;;;;;;;;;6304515;22;20027;-92
2022/11/03 13:29:21;;;;;;;0.10;0.10;;;;;;;;;;6309441;22;20030;-91
2022/11/03 13:32:13;;;;;;;0.13;0.13;;;;;;;;;;6308961;22;20025;-92
2022/11/03 13:34:55;;;;;;;0.10;0.10;;;;;;;;;;6316447;22;20007;-92
2022/11/03 14:03:58;;;;;;;0.10;0.10;;;;;;;;;;6356774;22;20002;-93
2022/11/03 14:06:28;;;;;;;0.10;0.10;;;;;;;;;;6363432;22;20046;-92
2022/11/03 14:09:16;;;;;;;0.20;0.20;;;;;;;;;;6336317;22;20007;-92
2022/11/03 14:14:59;;;;;;;0.10;0.10;;;;;;;;;;6362172;22;20014;-92
2022/11/03 14:23:28;;;;;;;0.10;0.10;;;;;;;;;;6373806;22;20030;-92
2022/11/03 14:25:55;;;;;;;0.10;0.10;;;;;;;;;;6309200;22;20042;-91
2022/11/03 14:34:22;;;;;;;0.10;0.10;;;;;;;;;;6348895;22;20023;-92
2022/11/03 14:36:55;;;;;;;0.08;0.08;;;;;;;;;;6335815;22;20029;-91
2022/11/03 14:55:54;;;;;;;0.20;0.20;;;;;;;;;;6345414;22;20026;-92
2022/11/03 14:58:20;;;;;;;0.10;0.10;;;;;;;;;;6334570;22;20467;-93
2022/11/03 15:00:48;;;;;;;0.10;0.10;;;;;;;;;;6337258;22;20055;-93
2022/11/03 15:03:14;;;;;;;0.20;0.20;;;;;;;;;;6306199;22;20015;-93
2022/11/03 15:05:44;;;;;;;0.10;0.10;;;;;;;;;;6330502;22;20026;-91
2022/11/03 15:08:14;;;;;;;0.20;0.20;;;;;;;;;;6306204;22;20004;-93
2022/11/03 15:18:27;;;;;;;0.10;0.10;;;;;;;;;;6361765;22;20017;-93
2022/11/03 15:20:55;;;;;;;0.10;0.10;;;;;;;;;;6311895;22;20068;-92
2022/11/03 15:23:27;;;;;;;0.20;0.20;;;;;;;;;;6337474;22;20015;-94
2022/11/03 15:28:29;;;;;;;0.10;0.10;;;;;;;;;;6363783;22;20010;-92
2022/11/03 15:30:56;;;;;;;0.10;0.10;;;;;;;;;;6313519;22;20021;-91
2022/11/03 15:41:48;;;;;;;0.10;0.10;;;;;;;;;;6362159;22;20030;-92
2022/11/03 15:49:46;;;;;;;0.20;0.20;;;;;;;;;;6340162;22;20010;-92
2022/11/03 15:52:12;;;;;;;0.10;0.10;;;;;;;;;;6314682;22;20082;-92
2022/11/03 15:54:56;;;;;;;0.20;0.20;;;;;;;;;;6339370;22;20005;-93
2022/11/03 16:05:38;;;;;;;0.10;0.10;;;;;;;;;;6363848;22;20078;-93
2022/11/03 16:32:12;;;;;;;0.20;0.20;;;;;;;;;;6365675;22;20013;-92
2022/11/03 16:58:07;;;;;;;0.20;0.20;;;;;;;;;;6304645;22;20050;-93
2022/11/03 18:21:33;;;;;;;0.10;0.10;;;;;;;;;;6364272;22;20003;-94
2022/11/03 19:25:03;;;;;;;0.20;0.20;;;;;;;;;;6362494;22;20007;-95
2022/11/03 19:27:35;;;;;;;0.20;0.20;;;;;;;;;;6301433;22;20011;-95
2022/11/03 20:32:32;;;;;;;0.17;0.17;;;;;;;;;;6361670;22;20052;-91
2022/11/03 20:35:23;;;;;;;0.20;0.20;;;;;;;;;;6337463;22;20023;-90
2022/11/03 20:41:13;;;;;;;0.20;0.20;;;;;;;;;;6374242;22;20132;-91
2022/11/03 20:46:54;;;;;;;0.20;0.20;;;;;;;;;;6376072;22;20025;-90
2022/11/03 20:49:54;;;;;;;0.20;0.20;;;;;;;;;;6334685;22;20057;-89
2022/11/03 20:52:38;;;;;;;0.30;0.30;;;;;;;;;;6316962;22;20048;-90
2022/11/03 20:55:22;;;;;;;0.15;0.15;;;;;;;;;;6338830;22;20006;-90
2022/11/03 20:57:56;;;;;;;0.20;0.20;;;;;;;;;;6354405;22;20022;-90
2022/11/03 21:00:45;;;;;;;0.22;0.22;;;;;;;;;;6357835;22;20027;-89
2022/11/03 21:22:32;;;;;;;0.10;0.10;;;;;;;;;;6403987;22;20065;-89
2022/11/03 21:25:16;;;;;;;0.20;0.20;;;;;;;;;;6346398;22;20026;-91
2022/11/03 21:33:41;;;;;;;0.20;0.20;;;;;;;;;;6362388;22;20022;-90
2022/11/03 21:36:20;;;;;;;0.20;0.20;;;;;;;;;;6309439;22;20027;-89
2022/11/03 21:38:46;;;;;;;0.20;0.20;;;;;;;;;;6312583;22;20025;-88
2022/11/03 21:44:17;;;;;;;0.10;0.10;;;;;;;;;;6340425;22;20006;-89
2022/11/03 21:46:46;;;;;;;0.20;0.20;;;;;;;;;;6311844;22;20014;-90
2022/11/03 21:51:57;;;;;;;0.10;0.10;;;;;;;;;;6314875;22;20037;-89
2022/11/03 21:54:47;;;;;;;0.20;0.20;;;;;;;;;;6310332;22;20009;-90
2022/11/03 22:48:14;;;;;;;0.20;0.20;;;;;;;;;;6303644;22;20023;-90
2022/11/03 22:51:03;;;;;;;0.20;0.20;;;;;;;;;;6282028;22;20051;-89
2022/11/03 23:15:30;;;;;;;0.30;0.30;;;;;;;;;;6324773;22;20023;-90
2022/11/03 23:23:04;;;;;;;0.20;0.20;;;;;;;;;;6330253;22;20007;-90
2022/11/03 23:25:31;;;;;;;0.20;0.20;;;;;;;;;;6300856;22;20038;-90
2022/11/03 23:27:58;;;;;;;0.20;0.20;;;;;;;;;;6308977;22;20066;-89
2022/11/03 23:30:24;;;;;;;0.30;0.30;;;;;;;;;;6303732;22;20019;-88
2022/11/03 23:32:51;;;;;;;0.20;0.20;;;;;;;;;;6335966;22;20014;-88
2022/11/03 23:35:17;;;;;;;0.20;0.20;;;;;;;;;;6305523;22;20019;-89
2022/11/03 23:37:44;;;;;;;0.20;0.20;;;;;;;;;;6309781;22;20022;-89
2022/11/03 23:40:10;;;;;;;0.10;0.10;;;;;;;;;;6304369;22;20014;-89
2022/11/03 23:42:36;;;;;;;0.20;0.20;;;;;;;;;;6305347;22;20003;-89
2022/11/03 23:50:53;;;;;;;0.20;0.20;;;;;;;;;;6336706;22;20015;-89
2022/11/03 23:53:19;;;;;;;0.20;0.20;;;;;;;;;;6305309;22;20053;-89
2022/11/03 23:58:31;;;;;;;;;;;;;;;;;;6312113;22;20034;-91
